createdAt,value
2022-12-25T00:00:37.330Z,85.00
2022-12-25T00:01:21.953Z,85.00
2022-12-25T00:02:07.016Z,85.00
2022-12-25T00:02:52.244Z,85.00
2022-12-25T00:03:37.175Z,85.00
2022-12-25T00:04:22.177Z,85.00
2022-12-25T00:05:06.707Z,85.00
2022-12-25T00:05:52.006Z,85.00
2022-12-25T00:06:36.627Z,92.00
2022-12-25T00:07:21.708Z,80.00
2022-12-25T00:08:06.745Z,80.00
2022-12-25T00:08:52.136Z,80.00
2022-12-25T00:09:37.179Z,80.00
2022-12-25T00:10:22.245Z,80.00
2022-12-25T00:11:07.274Z,80.00
2022-12-25T00:11:52.272Z,80.00
2022-12-25T00:12:37.285Z,80.00
2022-12-25T00:13:22.444Z,80.00
2022-12-25T00:14:07.622Z,80.00
2022-12-25T00:14:52.591Z,80.00
2022-12-25T00:15:37.626Z,80.00
2022-12-25T00:16:22.675Z,80.00
2022-12-25T00:17:07.752Z,80.00
2022-12-25T00:17:52.785Z,80.00
2022-12-25T00:18:37.848Z,80.00
2022-12-25T00:19:23.121Z,80.00
2022-12-25T00:20:07.891Z,80.00
2022-12-25T00:20:52.943Z,80.00
2022-12-25T00:21:38.218Z,80.00
2022-12-25T00:22:23.329Z,80.00
2022-12-25T00:23:08.378Z,80.00
2022-12-25T00:23:53.656Z,80.00
2022-12-25T00:24:38.709Z,80.00
2022-12-25T00:25:23.861Z,80.00
2022-12-25T00:26:08.926Z,80.00
2022-12-25T00:26:54.072Z,80.00
2022-12-25T00:27:39.230Z,80.00
2022-12-25T00:28:23.797Z,80.00
2022-12-25T00:29:09.169Z,80.00
2022-12-25T00:29:54.198Z,80.00
2022-12-25T00:30:38.845Z,80.00
2022-12-25T00:31:24.658Z,80.00
2022-12-25T00:32:09.986Z,80.00
2022-12-25T00:32:54.428Z,80.00
2022-12-25T00:33:39.615Z,80.00
2022-12-25T00:34:24.749Z,80.00
2022-12-25T00:35:09.797Z,80.00
2022-12-25T00:35:54.649Z,80.00
2022-12-25T00:36:41.965Z,80.00
2022-12-25T00:37:24.864Z,80.00
2022-12-25T00:38:09.949Z,80.00
2022-12-25T00:38:54.975Z,80.00
2022-12-25T00:39:40.053Z,80.00
2022-12-25T00:40:25.193Z,80.00
2022-12-25T00:41:10.043Z,80.00
2022-12-25T00:41:55.199Z,80.00
2022-12-25T00:42:40.364Z,80.00
2022-12-25T00:43:25.419Z,80.00
2022-12-25T00:44:10.210Z,80.00
2022-12-25T00:44:55.425Z,80.00
2022-12-25T00:45:40.642Z,80.00
2022-12-25T00:46:25.512Z,80.00
2022-12-25T00:47:10.646Z,80.00
2022-12-25T00:47:55.758Z,80.00
2022-12-25T00:48:40.925Z,80.00
2022-12-25T00:49:25.778Z,80.00
2022-12-25T00:50:10.791Z,80.00
2022-12-25T00:50:55.888Z,80.00
2022-12-25T00:51:40.737Z,80.00
2022-12-25T00:52:25.900Z,80.00
2022-12-25T00:53:11.044Z,80.00
2022-12-25T00:53:55.779Z,80.00
2022-12-25T00:54:41.082Z,80.00
2022-12-25T00:55:25.914Z,80.00
2022-12-25T00:56:11.070Z,80.00
2022-12-25T00:56:56.227Z,80.00
2022-12-25T00:57:41.006Z,80.00
2022-12-25T00:58:26.175Z,80.00
2022-12-25T00:59:11.110Z,80.00
2022-12-25T00:59:56.155Z,80.00
2022-12-25T01:00:41.193Z,80.00
2022-12-25T01:01:26.456Z,80.00
2022-12-25T01:02:11.418Z,80.00
2022-12-25T01:02:56.276Z,80.00
2022-12-25T01:03:41.281Z,80.00
2022-12-25T01:04:26.190Z,80.00
2022-12-25T01:05:11.129Z,80.00
2022-12-25T01:05:56.089Z,80.00
2022-12-25T01:06:41.143Z,80.00
2022-12-25T01:07:26.203Z,80.00
2022-12-25T01:08:11.291Z,80.00
2022-12-25T01:08:56.421Z,80.00
2022-12-25T01:09:41.890Z,80.00
2022-12-25T01:10:26.417Z,80.00
2022-12-25T01:11:11.482Z,80.00
2022-12-25T01:11:56.553Z,80.00
2022-12-25T01:12:41.614Z,80.00
2022-12-25T01:13:26.460Z,80.00
2022-12-25T01:14:11.709Z,80.00
2022-12-25T01:14:56.772Z,80.00
2022-12-25T01:15:41.853Z,80.00
2022-12-25T01:16:27.259Z,80.00
2022-12-25T01:17:12.349Z,80.00
2022-12-25T01:17:57.608Z,80.00
2022-12-25T01:18:42.563Z,80.00
2022-12-25T01:19:27.208Z,80.00
2022-12-25T01:20:12.403Z,80.00
2022-12-25T01:20:57.636Z,80.00
2022-12-25T01:21:42.540Z,80.00
2022-12-25T01:22:27.639Z,80.00
2022-12-25T01:23:13.301Z,80.00
2022-12-25T01:23:57.756Z,80.00
2022-12-25T01:24:43.072Z,80.00
2022-12-25T01:25:27.880Z,80.00
2022-12-25T01:26:13.273Z,80.00
2022-12-25T01:26:58.211Z,80.00
2022-12-25T01:27:43.215Z,80.00
2022-12-25T01:28:27.915Z,80.00
2022-12-25T01:29:12.836Z,80.00
2022-12-25T01:29:58.747Z,80.00
2022-12-25T01:30:43.295Z,80.00
2022-12-25T01:31:27.872Z,80.00
2022-12-25T01:32:13.235Z,80.00
2022-12-25T01:32:58.129Z,80.00
2022-12-25T01:33:43.482Z,80.00
2022-12-25T01:34:29.255Z,80.00
2022-12-25T01:35:13.517Z,80.00
2022-12-25T01:35:58.639Z,80.00
2022-12-25T01:36:43.931Z,80.00
2022-12-25T01:37:29.070Z,80.00
2022-12-25T01:38:14.097Z,80.00
2022-12-25T01:38:58.918Z,80.00
2022-12-25T01:39:43.828Z,80.00
2022-12-25T01:40:29.060Z,80.00
2022-12-25T01:41:14.160Z,80.00
2022-12-25T01:41:59.029Z,80.00
2022-12-25T01:42:44.988Z,80.00
2022-12-25T01:43:29.318Z,80.00
2022-12-25T01:44:14.291Z,80.00
2022-12-25T01:44:59.736Z,80.00
2022-12-25T01:45:44.055Z,80.00
2022-12-25T01:46:29.451Z,80.00
2022-12-25T01:47:14.497Z,80.00
2022-12-25T01:47:59.610Z,80.00
2022-12-25T01:48:45.066Z,80.00
2022-12-25T01:49:29.970Z,80.00
2022-12-25T01:50:14.831Z,80.00
2022-12-25T01:50:59.747Z,80.00
2022-12-25T01:51:44.743Z,80.00
2022-12-25T01:52:30.094Z,80.00
2022-12-25T01:53:15.149Z,80.00
2022-12-25T01:54:00.138Z,80.00
2022-12-25T01:54:45.596Z,80.00
2022-12-25T01:55:30.123Z,80.00
2022-12-25T01:56:16.025Z,80.00
2022-12-25T01:57:00.616Z,80.00
2022-12-25T01:57:45.959Z,80.00
2022-12-25T01:58:30.684Z,80.00
2022-12-25T01:59:16.010Z,80.00
2022-12-25T02:00:00.369Z,80.00
2022-12-25T02:00:46.549Z,80.00
2022-12-25T02:01:30.673Z,80.00
2022-12-25T02:02:28.404Z,80.00
2022-12-25T02:03:01.359Z,80.00
2022-12-25T02:03:46.215Z,80.00
2022-12-25T02:04:32.657Z,80.00
2022-12-25T02:05:37.187Z,80.00
2022-12-25T02:06:09.081Z,80.00
2022-12-25T02:07:08.218Z,80.00
2022-12-25T02:07:39.503Z,80.00
2022-12-25T02:08:25.443Z,80.00
2022-12-25T02:09:08.120Z,80.00
2022-12-25T02:09:54.828Z,80.00
2022-12-25T02:11:25.559Z,80.00
2022-12-25T02:12:15.874Z,80.00
2022-12-25T02:12:55.614Z,80.00
2022-12-25T02:13:40.294Z,80.00
2022-12-25T02:14:24.298Z,80.00
2022-12-25T02:15:08.383Z,80.00
2022-12-25T02:16:04.255Z,80.00
2022-12-25T02:16:57.230Z,80.00
2022-12-25T02:17:23.288Z,80.00
2022-12-25T02:18:07.626Z,80.00
2022-12-25T02:18:56.576Z,80.00
2022-12-25T02:20:27.818Z,80.00
2022-12-25T02:22:59.251Z,80.00
2022-12-25T02:23:31.112Z,80.00
2022-12-25T02:24:14.533Z,80.00
2022-12-25T02:25:08.870Z,80.00
2022-12-25T02:25:47.563Z,80.00
2022-12-25T02:26:34.384Z,80.00
2022-12-25T02:28:45.983Z,80.00
2022-12-25T02:29:31.260Z,80.00
2022-12-25T02:30:14.632Z,80.00
2022-12-25T02:31:00.391Z,80.00
2022-12-25T02:31:43.873Z,80.00
2022-12-25T02:32:28.736Z,80.00
2022-12-25T02:33:16.020Z,80.00
2022-12-25T02:34:05.017Z,80.00
2022-12-25T02:34:44.199Z,80.00
2022-12-25T02:35:30.041Z,80.00
2022-12-25T02:36:14.588Z,80.00
2022-12-25T02:37:02.006Z,80.00
2022-12-25T02:37:47.115Z,80.00
2022-12-25T02:38:32.144Z,80.00
2022-12-25T02:39:15.348Z,80.00
2022-12-25T02:39:59.716Z,80.00
2022-12-25T02:40:45.776Z,80.00
2022-12-25T02:41:29.932Z,80.00
2022-12-25T02:42:15.143Z,80.00
2022-12-25T02:42:59.262Z,80.00
2022-12-25T02:43:45.417Z,80.00
2022-12-25T02:44:30.338Z,80.00
2022-12-25T02:45:14.860Z,80.00
2022-12-25T02:46:00.282Z,80.00
2022-12-25T02:46:45.194Z,80.00
2022-12-25T02:47:29.674Z,80.00
2022-12-25T02:48:15.160Z,80.00
2022-12-25T02:49:01.701Z,80.00
2022-12-25T02:49:45.555Z,80.00
2022-12-25T02:50:30.046Z,80.00
2022-12-25T02:51:15.193Z,80.00
2022-12-25T02:52:00.346Z,80.00
2022-12-25T02:52:48.451Z,80.00
2022-12-25T02:53:30.867Z,80.00
2022-12-25T02:54:15.633Z,80.00
2022-12-25T02:55:00.594Z,80.00
2022-12-25T02:55:46.648Z,80.00
2022-12-25T02:56:36.942Z,80.00
2022-12-25T02:57:15.521Z,80.00
2022-12-25T02:58:03.440Z,80.00
2022-12-25T02:58:46.123Z,80.00
2022-12-25T02:59:31.517Z,80.00
2022-12-25T03:00:17.198Z,80.00
2022-12-25T03:04:55.193Z,80.00
2022-12-25T03:05:35.804Z,80.00
2022-12-25T03:06:16.196Z,80.00
2022-12-25T03:07:02.387Z,80.00
2022-12-25T03:07:49.451Z,80.00
2022-12-25T03:08:32.968Z,80.00
2022-12-25T03:10:02.681Z,80.00
2022-12-25T03:10:47.398Z,80.00
2022-12-25T03:13:15.217Z,80.00
2022-12-25T03:13:47.385Z,80.00
2022-12-25T03:14:32.059Z,80.00
2022-12-25T03:15:17.496Z,80.00
2022-12-25T03:16:02.073Z,80.00
2022-12-25T03:16:47.291Z,80.00
2022-12-25T03:17:33.098Z,80.00
2022-12-25T03:18:17.956Z,80.00
2022-12-25T03:19:02.612Z,80.00
2022-12-25T03:19:48.944Z,80.00
2022-12-25T03:20:32.557Z,80.00
2022-12-25T03:21:18.910Z,80.00
2022-12-25T03:22:10.449Z,80.00
2022-12-25T03:24:27.836Z,80.00
2022-12-25T03:25:12.212Z,80.00
2022-12-25T03:31:50.382Z,80.00
2022-12-25T03:32:35.782Z,80.00
2022-12-25T03:33:43.897Z,80.00
2022-12-25T03:34:05.756Z,80.00
2022-12-25T03:34:52.591Z,80.00
2022-12-25T03:35:35.255Z,80.00
2022-12-25T03:36:21.190Z,80.00
2022-12-25T03:37:06.308Z,80.00
2022-12-25T03:37:53.895Z,80.00
2022-12-25T03:38:35.171Z,80.00
2022-12-25T03:39:22.790Z,80.00
2022-12-25T03:40:05.410Z,80.00
2022-12-25T03:40:52.269Z,80.00
2022-12-25T03:41:37.373Z,80.00
2022-12-25T03:42:23.622Z,80.00
2022-12-25T03:43:07.445Z,80.00
2022-12-25T03:43:50.867Z,80.00
2022-12-25T03:44:36.268Z,80.00
2022-12-25T03:45:21.803Z,80.00
2022-12-25T03:46:06.141Z,80.00
2022-12-25T03:46:51.505Z,80.00
2022-12-25T03:47:35.279Z,80.00
2022-12-25T03:48:35.239Z,80.00
2022-12-25T03:49:06.709Z,80.00
2022-12-25T03:49:55.773Z,80.00
2022-12-25T03:50:42.930Z,80.00
2022-12-25T03:54:25.505Z,80.00
2022-12-25T03:55:14.262Z,80.00
2022-12-25T03:55:54.667Z,80.00
2022-12-25T03:56:40.550Z,80.00
2022-12-25T03:57:31.100Z,80.00
2022-12-25T03:58:12.771Z,80.00
2022-12-25T03:58:51.900Z,80.00
2022-12-25T03:59:40.031Z,80.00
2022-12-25T04:00:22.233Z,80.00
2022-12-25T04:01:07.484Z,80.00
2022-12-25T04:01:54.418Z,80.00
2022-12-25T04:02:42.485Z,80.00
2022-12-25T04:03:22.275Z,80.00
2022-12-25T04:04:06.736Z,80.00
2022-12-25T04:04:56.915Z,80.00
2022-12-25T04:05:37.009Z,80.00
2022-12-25T04:06:22.210Z,80.00
2022-12-25T04:07:07.389Z,80.00
2022-12-25T04:07:53.617Z,80.00
2022-12-25T04:08:36.830Z,80.00
2022-12-25T04:09:22.195Z,80.00
2022-12-25T04:10:08.161Z,80.00
2022-12-25T04:10:53.645Z,80.00
2022-12-25T04:11:37.300Z,80.00
2022-12-25T04:12:23.149Z,80.00
2022-12-25T04:13:16.910Z,80.00
2022-12-25T04:14:42.275Z,80.00
2022-12-25T04:15:23.492Z,80.00
2022-12-25T04:16:07.747Z,80.00
2022-12-25T04:16:53.075Z,80.00
2022-12-25T04:17:38.502Z,80.00
2022-12-25T04:18:24.903Z,80.00
2022-12-25T04:19:08.127Z,80.00
2022-12-25T04:19:55.380Z,80.00
2022-12-25T04:20:37.293Z,80.00
2022-12-25T04:21:23.232Z,80.00
2022-12-25T04:22:07.822Z,80.00
2022-12-25T04:22:54.114Z,80.00
2022-12-25T04:23:38.121Z,80.00
2022-12-25T04:24:24.581Z,80.00
2022-12-25T04:25:07.789Z,80.00
2022-12-25T04:25:53.529Z,80.00
2022-12-25T04:26:39.696Z,80.00
2022-12-25T04:27:24.136Z,80.00
2022-12-25T04:28:13.437Z,80.00
2022-12-25T04:28:58.718Z,80.00
2022-12-25T04:30:29.999Z,80.00
2022-12-25T04:31:10.346Z,80.00
2022-12-25T04:31:54.996Z,80.00
2022-12-25T04:32:39.646Z,80.00
2022-12-25T04:33:23.516Z,80.00
2022-12-25T04:34:08.408Z,80.00
2022-12-25T04:34:56.879Z,80.00
2022-12-25T04:35:39.162Z,80.00
2022-12-25T04:36:27.229Z,80.00
2022-12-25T04:37:16.638Z,80.00
2022-12-25T04:37:54.049Z,80.00
2022-12-25T04:38:38.656Z,80.00
2022-12-25T04:39:23.813Z,80.00
2022-12-25T04:40:16.263Z,80.00
2022-12-25T04:40:58.754Z,80.00
2022-12-25T04:41:40.130Z,80.00
2022-12-25T05:05:55.812Z,80.00
2022-12-25T05:06:28.828Z,80.00
2022-12-25T05:07:13.051Z,80.00
2022-12-25T05:07:58.963Z,80.00
2022-12-25T05:08:44.345Z,80.00
2022-12-25T05:09:31.710Z,80.00
2022-12-25T05:10:13.492Z,80.00
2022-12-25T05:10:58.642Z,80.00
2022-12-25T05:11:44.181Z,80.00
2022-12-25T05:13:36.179Z,0.00
2022-12-25T05:14:21.158Z,0.00
2022-12-25T05:15:06.917Z,0.00
2022-12-25T05:15:50.572Z,0.00
2022-12-25T05:16:36.667Z,0.00
2022-12-25T05:17:18.072Z,0.00
2022-12-25T05:18:02.548Z,0.00
2022-12-25T05:18:48.323Z,0.00
2022-12-25T05:19:32.294Z,0.00
2022-12-25T05:20:25.429Z,0.00
2022-12-25T05:21:07.467Z,0.00
2022-12-25T05:21:47.483Z,0.00
2022-12-25T05:23:16.674Z,0.00
2022-12-25T05:25:59.177Z,0.00
2022-12-25T05:26:42.241Z,0.00
2022-12-25T05:27:28.023Z,0.00
2022-12-25T05:28:15.927Z,0.00
2022-12-25T07:26:00.104Z,89.61
2022-12-25T07:26:45.145Z,89.61
2022-12-25T07:27:35.131Z,89.61
2022-12-25T07:28:19.473Z,89.61
2022-12-25T07:29:02.535Z,89.61
2022-12-25T07:29:50.885Z,89.61
2022-12-25T07:36:30.377Z,60.00
2022-12-25T07:37:15.260Z,60.00
2022-12-25T07:38:00.280Z,60.00
2022-12-25T07:38:46.665Z,60.00
2022-12-25T07:39:31.871Z,60.00
2022-12-25T07:40:15.560Z,60.00
2022-12-25T07:41:10.641Z,60.00
2022-12-25T07:41:50.572Z,60.00
2022-12-25T08:02:15.473Z,60.00
2022-12-25T08:02:59.396Z,60.00
2022-12-25T08:45:34.744Z,60.00
2022-12-25T08:46:15.663Z,60.00
2022-12-25T08:46:59.699Z,60.00
2022-12-25T08:47:45.072Z,60.00
2022-12-25T08:48:30.914Z,60.00
2022-12-25T08:49:15.474Z,60.00
2022-12-25T08:50:00.631Z,60.00
2022-12-25T08:50:45.808Z,60.00
2022-12-25T08:51:30.671Z,60.00
2022-12-25T08:52:15.983Z,60.00
2022-12-25T08:53:00.931Z,60.00
2022-12-25T08:53:45.841Z,60.00
2022-12-25T08:55:19.536Z,60.00
2022-12-25T10:49:53.984Z,67.99
2022-12-25T10:50:38.845Z,111.73
2022-12-25T10:51:23.607Z,103.95
2022-12-25T10:52:08.760Z,103.95
2022-12-25T10:52:54.045Z,103.95
2022-12-25T10:53:39.078Z,103.95
2022-12-25T10:54:24.210Z,103.95
2022-12-25T10:55:09.365Z,103.95
2022-12-25T10:55:54.337Z,103.95
2022-12-25T10:56:39.286Z,103.95
2022-12-25T10:57:24.879Z,103.95
2022-12-25T10:58:09.439Z,103.95
2022-12-25T10:58:54.893Z,103.95
2022-12-25T10:59:39.919Z,103.95
2022-12-25T11:00:24.466Z,103.95
2022-12-25T11:01:09.549Z,103.95
2022-12-25T11:01:55.673Z,103.95
2022-12-25T11:02:39.809Z,103.95
2022-12-25T11:03:24.876Z,103.95
2022-12-25T11:04:09.945Z,103.95
2022-12-25T11:04:54.819Z,103.95
2022-12-25T11:05:39.871Z,103.95
2022-12-25T11:06:25.947Z,103.95
2022-12-25T11:07:11.334Z,103.95
2022-12-25T11:07:56.747Z,103.95
2022-12-25T11:08:45.934Z,47.98
2022-12-25T11:09:25.423Z,47.98
2022-12-25T11:10:10.877Z,47.98
2022-12-25T11:10:55.577Z,47.98
2022-12-25T11:11:40.515Z,47.98
2022-12-25T11:12:25.824Z,47.98
2022-12-25T11:13:10.636Z,47.98
2022-12-25T11:13:55.194Z,47.98
2022-12-25T11:14:40.573Z,47.98
2022-12-25T11:15:26.105Z,47.98
2022-12-25T11:16:10.655Z,47.98
2022-12-25T11:16:55.640Z,47.98
2022-12-25T11:17:40.662Z,47.98
2022-12-25T11:18:25.719Z,47.98
2022-12-25T11:19:11.085Z,47.98
2022-12-25T11:19:55.853Z,47.98
2022-12-25T11:20:45.404Z,47.98
2022-12-25T11:21:25.946Z,47.98
2022-12-25T11:22:11.018Z,47.98
2022-12-25T11:22:56.109Z,47.98
2022-12-25T11:23:41.126Z,47.98
2022-12-25T11:24:26.074Z,47.98
2022-12-25T11:25:11.171Z,47.98
2022-12-25T11:25:56.195Z,47.98
2022-12-25T11:26:41.237Z,47.98
2022-12-25T11:27:26.146Z,47.98
2022-12-25T11:28:11.659Z,47.98
2022-12-25T11:28:56.447Z,47.98
2022-12-25T11:29:41.435Z,47.98
2022-12-25T11:30:26.625Z,47.98
2022-12-25T11:31:12.037Z,47.98
2022-12-25T11:31:57.253Z,47.98
2022-12-25T11:32:42.256Z,47.98
2022-12-25T11:33:26.945Z,47.98
2022-12-25T11:34:12.104Z,47.98
2022-12-25T11:34:57.270Z,47.98
2022-12-25T11:35:42.125Z,47.98
2022-12-25T11:36:27.413Z,47.98
2022-12-25T11:37:12.793Z,47.98
2022-12-25T11:37:57.609Z,47.98
2022-12-25T11:38:42.054Z,47.98
2022-12-25T11:39:27.436Z,47.98
2022-12-25T11:40:12.569Z,47.98
2022-12-25T11:40:57.549Z,47.98
2022-12-25T11:41:42.686Z,47.98
2022-12-25T11:42:27.670Z,47.98
2022-12-25T11:43:12.911Z,47.98
2022-12-25T11:43:57.791Z,47.98
2022-12-25T11:44:42.792Z,47.98
2022-12-25T11:45:27.764Z,47.98
2022-12-25T11:46:13.067Z,47.98
2022-12-25T11:46:58.033Z,47.98
2022-12-25T11:47:43.240Z,47.98
2022-12-25T11:48:28.129Z,47.98
2022-12-25T11:49:12.924Z,47.98
2022-12-25T11:50:00.787Z,47.98
2022-12-25T11:50:43.362Z,47.98
2022-12-25T11:51:28.304Z,47.98
2022-12-25T11:52:13.972Z,47.98
2022-12-25T11:52:58.524Z,47.98
2022-12-25T11:53:43.273Z,47.98
2022-12-25T11:54:28.325Z,47.98
2022-12-25T11:55:13.554Z,47.98
2022-12-25T11:55:58.665Z,47.98
2022-12-25T11:56:43.594Z,47.98
2022-12-25T11:57:28.292Z,47.98
2022-12-25T11:58:13.809Z,47.98
2022-12-25T11:58:58.592Z,47.98
2022-12-25T11:59:43.719Z,47.98
2022-12-25T12:00:28.772Z,47.98
2022-12-25T12:01:13.931Z,47.98
2022-12-25T12:01:59.124Z,47.98
2022-12-25T12:02:43.930Z,47.98
2022-12-25T12:03:29.576Z,47.98
2022-12-25T12:04:14.219Z,47.98
2022-12-25T12:04:59.833Z,47.98
2022-12-25T12:05:44.268Z,47.98
2022-12-25T12:06:29.235Z,47.98
2022-12-25T12:07:14.230Z,47.98
2022-12-25T12:07:59.159Z,47.98
2022-12-25T12:08:44.719Z,47.98
2022-12-25T12:09:29.310Z,47.98
2022-12-25T12:10:14.753Z,47.98
2022-12-25T12:11:00.120Z,47.98
2022-12-25T12:11:44.457Z,47.98
2022-12-25T12:12:29.945Z,47.98
2022-12-25T12:14:39.168Z,90.98
2022-12-25T15:21:53.629Z,0.00
2022-12-25T15:23:10.322Z,0.00
2022-12-25T15:23:23.327Z,83.83
2022-12-25T15:24:08.795Z,83.83
2022-12-25T15:24:58.753Z,83.83
2022-12-25T15:25:38.552Z,40.40
2022-12-25T15:26:25.700Z,40.40
2022-12-25T15:27:09.307Z,40.40
2022-12-25T15:27:55.880Z,40.40
2022-12-25T15:28:39.076Z,40.40
2022-12-25T15:29:44.648Z,40.40
2022-12-25T15:30:10.096Z,40.40
2022-12-25T15:30:53.869Z,129.81
2022-12-25T15:31:39.132Z,129.81
2022-12-25T15:32:26.336Z,129.81
2022-12-25T15:33:09.183Z,129.81
2022-12-25T15:33:54.842Z,129.81
2022-12-25T15:34:39.273Z,129.81
2022-12-25T15:35:24.366Z,129.81
2022-12-25T15:36:10.117Z,129.81
2022-12-25T15:36:54.446Z,129.81
2022-12-25T15:37:39.643Z,129.81
2022-12-25T15:38:24.778Z,129.81
2022-12-25T15:39:10.146Z,129.81
2022-12-25T15:39:54.731Z,129.81
2022-12-25T15:40:40.245Z,129.81
2022-12-25T15:41:25.481Z,129.81
2022-12-25T15:42:09.645Z,129.81
2022-12-25T15:42:56.498Z,129.81
2022-12-25T15:43:40.776Z,129.81
2022-12-25T15:44:26.136Z,129.81
2022-12-25T15:45:11.508Z,129.81
2022-12-25T15:45:57.707Z,129.81
2022-12-25T15:46:42.140Z,129.81
2022-12-25T15:47:26.685Z,129.81
2022-12-25T15:48:11.733Z,129.81
2022-12-25T15:48:55.862Z,129.81
2022-12-25T15:49:41.704Z,129.81
2022-12-25T15:50:26.287Z,129.81
2022-12-25T15:51:11.373Z,129.81
2022-12-25T15:51:56.805Z,129.81
2022-12-25T15:52:41.355Z,129.81
2022-12-25T15:53:26.512Z,129.81
2022-12-25T15:54:11.591Z,129.81
2022-12-25T15:54:56.519Z,129.81
2022-12-25T15:55:41.579Z,129.81
2022-12-25T15:56:26.635Z,129.81
2022-12-25T15:57:11.635Z,129.81
2022-12-25T15:57:55.940Z,129.81
2022-12-25T15:58:42.312Z,129.81
2022-12-25T15:59:27.391Z,129.81
2022-12-25T16:00:10.891Z,129.81
2022-12-25T16:00:58.001Z,129.81
2022-12-25T16:01:41.195Z,129.81
2022-12-25T16:02:26.273Z,129.81
2022-12-25T16:03:11.378Z,129.81
2022-12-25T16:03:56.499Z,129.81
2022-12-25T16:04:41.222Z,129.81
2022-12-25T16:05:26.532Z,129.81
2022-12-25T16:06:11.581Z,129.81
2022-12-25T16:06:56.513Z,129.81
2022-12-25T16:07:41.568Z,129.81
2022-12-25T16:08:27.492Z,129.81
2022-12-25T16:09:12.011Z,129.81
2022-12-25T16:09:56.627Z,129.81
2022-12-25T16:10:42.335Z,129.81
2022-12-25T16:11:27.079Z,129.81
2022-12-25T16:12:11.913Z,129.81
2022-12-25T16:12:56.811Z,129.81
2022-12-25T16:13:41.913Z,129.81
2022-12-25T16:14:27.065Z,129.81
2022-12-25T16:15:12.017Z,129.81
2022-12-25T16:15:57.095Z,129.81
2022-12-25T16:16:42.697Z,129.81
2022-12-25T16:17:27.335Z,129.81
2022-12-25T16:18:12.445Z,129.81
2022-12-25T16:18:57.812Z,129.81
2022-12-25T16:19:42.365Z,129.81
2022-12-25T16:20:27.426Z,129.81
2022-12-25T16:21:12.487Z,129.81
2022-12-25T16:21:57.850Z,129.81
2022-12-25T16:22:42.485Z,129.81
2022-12-25T16:23:27.638Z,129.81
2022-12-25T16:24:12.699Z,129.81
2022-12-25T16:24:57.662Z,129.81
2022-12-25T16:25:42.600Z,129.81
2022-12-25T16:26:27.655Z,129.81
2022-12-25T16:27:12.744Z,129.81
2022-12-25T16:27:58.199Z,129.81
2022-12-25T16:28:43.240Z,129.81
2022-12-25T16:29:27.900Z,129.81
2022-12-25T16:30:13.058Z,129.81
2022-12-25T16:30:58.135Z,129.81
2022-12-25T16:31:44.095Z,129.81
2022-12-25T16:32:28.115Z,129.81
2022-12-25T16:33:13.077Z,129.81
2022-12-25T16:33:58.230Z,129.81
2022-12-25T16:34:43.281Z,129.81
2022-12-25T16:35:28.337Z,129.81
2022-12-25T16:36:13.511Z,129.81
2022-12-25T16:36:59.213Z,129.81
2022-12-25T16:37:44.145Z,129.81
2022-12-25T16:38:28.544Z,129.81
2022-12-25T16:39:13.629Z,129.81
2022-12-25T16:39:59.345Z,129.81
2022-12-25T16:40:43.773Z,129.81
2022-12-25T16:41:28.895Z,129.81
2022-12-25T16:42:13.638Z,129.81
2022-12-25T16:42:58.806Z,129.81
2022-12-25T16:43:43.858Z,129.81
2022-12-25T16:44:29.276Z,129.81
2022-12-25T16:45:13.971Z,129.81
2022-12-25T16:45:59.224Z,129.81
2022-12-25T16:46:44.190Z,129.81
2022-12-25T16:47:29.962Z,129.81
2022-12-25T16:48:14.305Z,129.81
2022-12-25T16:48:59.250Z,129.81
2022-12-25T16:49:44.715Z,129.81
2022-12-25T16:50:29.835Z,129.81
2022-12-25T16:51:14.424Z,129.81
2022-12-25T16:51:59.694Z,129.81
2022-12-25T16:52:44.377Z,129.81
2022-12-25T16:53:29.583Z,129.81
2022-12-25T16:54:14.706Z,129.81
2022-12-25T16:54:59.997Z,129.81
2022-12-25T16:55:44.654Z,129.81
2022-12-25T16:56:30.227Z,129.81
2022-12-25T16:57:14.683Z,129.81
2022-12-25T16:58:00.256Z,129.81
2022-12-25T16:58:45.329Z,129.81
2022-12-25T16:59:29.789Z,129.81
2022-12-25T17:00:15.000Z,129.81
2022-12-25T17:01:00.008Z,129.81
2022-12-25T17:01:45.506Z,129.81
2022-12-25T17:02:30.358Z,129.81
2022-12-25T17:03:15.228Z,129.81
2022-12-25T17:04:00.468Z,129.81
2022-12-25T17:04:45.263Z,129.81
2022-12-25T17:05:30.283Z,129.81
2022-12-25T17:06:15.347Z,129.81
2022-12-25T17:07:00.795Z,129.81
2022-12-25T17:07:45.768Z,129.81
2022-12-25T17:08:30.516Z,129.81
2022-12-25T17:09:15.675Z,129.81
2022-12-25T17:10:00.978Z,129.81
2022-12-25T17:10:45.701Z,129.81
2022-12-25T17:11:30.635Z,129.81
2022-12-25T17:12:15.674Z,129.81
2022-12-25T17:13:00.951Z,129.81
2022-12-25T17:13:45.844Z,129.81
2022-12-25T17:14:30.855Z,129.81
2022-12-25T17:15:15.914Z,129.81
2022-12-25T17:16:01.510Z,129.81
2022-12-25T17:16:46.114Z,129.81
2022-12-25T17:17:31.087Z,129.81
2022-12-25T17:18:16.138Z,129.81
2022-12-25T17:19:01.371Z,129.81
2022-12-25T17:19:46.213Z,129.81
2022-12-25T17:20:31.206Z,129.81
2022-12-25T17:21:16.372Z,129.81
2022-12-25T17:22:01.539Z,129.81
2022-12-25T17:22:46.489Z,129.81
2022-12-25T17:23:31.542Z,129.81
2022-12-25T17:24:16.594Z,129.81
2022-12-25T17:25:01.965Z,129.81
2022-12-25T17:25:46.933Z,129.81
2022-12-25T17:26:32.092Z,129.81
2022-12-25T17:27:16.831Z,129.81
2022-12-25T17:28:02.289Z,129.81
2022-12-25T17:28:47.278Z,129.81
2022-12-25T17:29:32.024Z,129.81
2022-12-25T17:30:17.963Z,129.81
2022-12-25T17:31:02.287Z,129.81
2022-12-25T17:31:47.123Z,129.81
2022-12-25T17:32:32.227Z,129.81
2022-12-25T17:33:17.301Z,129.81
2022-12-25T17:34:02.244Z,129.81
2022-12-25T17:34:47.314Z,129.81
2022-12-25T17:35:32.468Z,129.81
2022-12-25T17:36:17.424Z,129.81
2022-12-25T17:37:03.325Z,129.81
2022-12-25T17:37:47.915Z,129.81
2022-12-25T17:38:32.683Z,129.81
2022-12-25T17:39:17.631Z,129.81
2022-12-25T17:40:02.927Z,129.81
2022-12-25T17:40:47.849Z,129.81
2022-12-25T17:41:32.922Z,129.81
2022-12-25T17:42:17.972Z,129.81
2022-12-25T17:43:03.035Z,129.81
2022-12-25T17:43:48.073Z,129.81
2022-12-25T17:44:32.911Z,129.81
2022-12-25T17:45:18.600Z,129.81
2022-12-25T17:46:03.450Z,129.81
2022-12-25T17:46:48.975Z,129.81
2022-12-25T17:47:33.393Z,129.81
2022-12-25T17:48:18.323Z,129.81
2022-12-25T17:49:03.561Z,129.81
2022-12-25T17:49:48.411Z,129.81
2022-12-25T17:50:39.184Z,129.81
2022-12-25T17:51:18.535Z,129.81
2022-12-25T17:52:03.627Z,129.81
2022-12-25T17:52:48.684Z,129.81
2022-12-25T17:53:33.732Z,129.81
2022-12-25T17:54:18.786Z,129.81
2022-12-25T17:55:03.705Z,129.81
2022-12-25T17:55:48.878Z,129.81
2022-12-25T17:56:34.119Z,129.81
2022-12-25T17:57:19.189Z,129.81
2022-12-25T17:58:04.029Z,129.81
2022-12-25T17:58:48.882Z,129.81
2022-12-25T17:59:34.213Z,129.81
2022-12-25T18:00:19.198Z,129.81
2022-12-25T18:01:04.680Z,129.81
2022-12-25T18:01:49.465Z,129.81
2022-12-25T18:02:34.370Z,129.81
2022-12-25T18:03:19.713Z,129.81
2022-12-25T18:04:04.612Z,129.81
2022-12-25T18:04:49.778Z,129.81
2022-12-25T18:05:34.547Z,129.81
2022-12-25T18:06:20.070Z,129.81
2022-12-25T18:07:04.602Z,129.81
2022-12-25T18:07:49.483Z,129.81
2022-12-25T18:08:39.330Z,129.81
2022-12-25T18:09:19.686Z,129.81
2022-12-25T18:10:05.131Z,129.81
2022-12-25T18:10:49.821Z,129.81
2022-12-25T18:11:37.020Z,129.81
2022-12-25T18:12:19.936Z,129.81
2022-12-25T18:13:05.307Z,129.81
2022-12-25T18:13:50.533Z,129.81
2022-12-25T18:14:36.122Z,129.81
2022-12-25T18:15:20.950Z,129.81
2022-12-25T18:16:05.401Z,129.81
2022-12-25T18:16:50.393Z,129.81
2022-12-25T18:17:35.447Z,129.81
2022-12-25T18:18:20.480Z,129.81
2022-12-25T18:19:05.767Z,129.81
2022-12-25T18:19:50.569Z,129.81
2022-12-25T18:20:39.897Z,129.81
2022-12-25T18:21:20.675Z,129.81
2022-12-25T18:22:09.619Z,129.81
2022-12-25T18:22:51.348Z,129.81
2022-12-25T18:23:35.746Z,129.81
2022-12-25T18:24:20.962Z,129.81
2022-12-25T18:25:06.288Z,129.81
2022-12-25T18:25:51.048Z,129.81
2022-12-25T18:26:39.970Z,129.81
2022-12-25T18:27:23.447Z,129.81
2022-12-25T18:28:06.096Z,129.81
2022-12-25T18:28:51.373Z,129.81
2022-12-25T18:29:36.292Z,129.81
2022-12-25T18:30:21.367Z,129.81
2022-12-25T18:31:10.616Z,129.81